createdAt,value
2019-03-26T00:00:45.098Z,78.58
2019-03-26T00:03:14.661Z,78.38
2019-03-26T00:05:44.215Z,78.56
2019-03-26T00:08:13.732Z,78.48
2019-03-26T00:10:43.432Z,78.26
2019-03-26T00:13:12.903Z,78.50
2019-03-26T00:15:42.341Z,78.78
2019-03-26T00:18:11.828Z,78.86
2019-03-26T00:20:41.301Z,78.84
2019-03-26T00:23:12.042Z,79.18
2019-03-26T00:25:41.476Z,79.24
2019-03-26T00:28:10.975Z,79.21
2019-03-26T00:30:40.468Z,79.33
2019-03-26T00:33:09.885Z,79.29
2019-03-26T00:35:39.583Z,79.58
2019-03-26T00:38:09.058Z,79.58
2019-03-26T00:40:40.176Z,79.69
2019-03-26T00:43:09.934Z,79.79
2019-03-26T00:45:39.462Z,79.54
2019-03-26T00:48:08.946Z,79.49
2019-03-26T00:50:38.486Z,79.64
2019-03-26T00:53:07.930Z,79.81
2019-03-26T00:55:37.383Z,79.79
2019-03-26T00:58:06.995Z,79.37
2019-03-26T01:00:37.876Z,79.61
2019-03-26T01:03:07.338Z,79.63
2019-03-26T01:05:36.947Z,79.50
2019-03-26T01:08:06.504Z,79.45
2019-03-26T01:10:35.974Z,79.40
2019-03-26T01:13:05.661Z,79.30
2019-03-26T01:15:35.137Z,79.45
2019-03-26T01:18:04.690Z,79.29
2019-03-26T01:20:34.207Z,79.38
2019-03-26T01:23:03.815Z,79.22
2019-03-26T01:25:33.198Z,79.49
2019-03-26T01:28:02.788Z,79.67
2019-03-26T01:30:33.318Z,79.42
2019-03-26T01:33:02.785Z,79.58
2019-03-26T01:35:32.526Z,79.58
2019-03-26T01:38:02.069Z,79.78
2019-03-26T01:40:31.625Z,79.75
2019-03-26T01:43:01.162Z,80.02
2019-03-26T01:45:31.524Z,79.99
2019-03-26T01:48:00.957Z,80.29
2019-03-26T01:50:30.568Z,80.35
2019-03-26T01:53:00.108Z,80.42
2019-03-26T01:55:29.778Z,80.41
2019-03-26T01:57:59.489Z,80.28
2019-03-26T02:00:28.992Z,80.06
2019-03-26T02:02:58.496Z,80.26
2019-03-26T02:05:28.032Z,80.11
2019-03-26T02:07:57.504Z,80.37
2019-03-26T02:10:27.112Z,80.37
2019-03-26T02:12:56.604Z,80.28
2019-03-26T02:15:30.894Z,80.07
2019-03-26T02:18:00.477Z,79.87
2019-03-26T02:20:30.020Z,79.94
2019-03-26T02:22:59.565Z,80.02
2019-03-26T02:25:29.085Z,80.03
2019-03-26T02:27:58.679Z,80.03
2019-03-26T02:30:28.695Z,79.86
2019-03-26T02:32:58.930Z,79.77
2019-03-26T02:35:28.373Z,79.68
2019-03-26T02:37:57.870Z,79.66
2019-03-26T02:40:27.443Z,79.70
2019-03-26T02:42:57.017Z,79.54
2019-03-26T02:45:26.460Z,79.75
2019-03-26T02:47:56.064Z,79.74
2019-03-26T02:50:25.606Z,79.76
2019-03-26T02:52:55.037Z,79.68
2019-03-26T02:55:24.479Z,79.70
2019-03-26T02:57:53.971Z,79.60
2019-03-26T03:00:23.516Z,79.47
2019-03-26T03:02:53.022Z,79.46
2019-03-26T03:05:35.321Z,79.42
2019-03-26T03:07:53.650Z,79.45
2019-03-26T03:10:23.265Z,79.25
2019-03-26T03:12:52.729Z,79.22
2019-03-26T03:15:22.250Z,79.16
2019-03-26T03:17:51.799Z,79.53
2019-03-26T03:20:21.275Z,79.57
2019-03-26T03:22:50.754Z,79.42
2019-03-26T03:25:20.346Z,79.28
2019-03-26T03:27:49.856Z,79.46
2019-03-26T03:30:19.244Z,79.47
2019-03-26T03:32:48.883Z,79.60
2019-03-26T03:35:18.304Z,79.19
2019-03-26T03:37:47.745Z,79.34
2019-03-26T03:40:17.217Z,79.57
2019-03-26T03:42:46.677Z,79.39
2019-03-26T03:45:19.480Z,79.54
2019-03-26T03:47:49.036Z,79.57
2019-03-26T03:50:18.491Z,79.44
2019-03-26T03:52:47.960Z,79.74
2019-03-26T03:55:17.404Z,79.77
2019-03-26T03:57:46.808Z,79.58
2019-03-26T04:00:19.678Z,79.68
2019-03-26T04:02:49.173Z,79.73
2019-03-26T04:05:18.543Z,79.97
2019-03-26T04:07:48.041Z,79.61
2019-03-26T04:10:17.517Z,79.71
2019-03-26T04:12:47.160Z,79.74
2019-03-26T04:15:16.763Z,79.90
2019-03-26T04:17:46.226Z,79.95
2019-03-26T04:20:15.774Z,79.83
2019-03-26T04:22:45.490Z,80.11
2019-03-26T04:25:14.941Z,80.30
2019-03-26T04:27:44.432Z,80.24
2019-03-26T04:30:17.207Z,80.37
2019-03-26T04:32:46.685Z,80.37
2019-03-26T04:35:16.112Z,80.23
2019-03-26T04:37:46.178Z,80.06
2019-03-26T04:40:15.564Z,80.08
2019-03-26T04:42:45.026Z,79.95
2019-03-26T04:45:14.568Z,80.09
2019-03-26T04:47:44.154Z,79.70
2019-03-26T04:50:13.531Z,79.75
2019-03-26T04:52:42.992Z,79.90
2019-03-26T04:55:20.361Z,80.14
2019-03-26T04:57:49.640Z,79.95
2019-03-26T05:00:19.021Z,79.90
2019-03-26T05:02:48.572Z,79.74
2019-03-26T05:05:18.087Z,79.10
2019-03-26T05:07:47.526Z,79.21
2019-03-26T05:10:16.983Z,78.88
2019-03-26T05:12:46.472Z,78.76
2019-03-26T05:15:15.924Z,78.47
2019-03-26T05:17:45.570Z,78.18
2019-03-26T05:20:15.137Z,77.65
2019-03-26T05:22:44.693Z,77.65
2019-03-26T05:25:14.152Z,77.55
2019-03-26T05:27:45.523Z,77.87
2019-03-26T05:30:14.875Z,76.92
2019-03-26T05:32:44.419Z,77.00
2019-03-26T05:35:13.962Z,77.11
2019-03-26T05:37:43.548Z,76.46
2019-03-26T05:40:13.298Z,76.58
2019-03-26T05:42:42.834Z,76.36
2019-03-26T05:45:12.387Z,76.34
2019-03-26T05:47:41.944Z,76.41
2019-03-26T05:50:11.380Z,75.81
2019-03-26T05:52:40.848Z,75.25
2019-03-26T05:55:10.455Z,75.16
2019-03-26T05:57:39.932Z,74.64
2019-03-26T06:00:12.941Z,74.45
2019-03-26T06:02:42.434Z,73.31
2019-03-26T06:05:11.975Z,74.11
2019-03-26T06:07:41.409Z,72.42
2019-03-26T06:10:11.475Z,72.39
2019-03-26T06:12:41.095Z,73.05
2019-03-26T06:15:12.933Z,73.50
2019-03-26T06:17:44.044Z,73.22
2019-03-26T06:20:13.555Z,68.18
2019-03-26T06:22:43.034Z,64.75
2019-03-26T06:25:12.723Z,66.21
2019-03-26T06:27:42.299Z,65.11
2019-03-26T06:30:11.851Z,64.22
2019-03-26T06:32:41.345Z,67.74
2019-03-26T06:35:13.298Z,68.82
2019-03-26T06:37:42.771Z,66.00
2019-03-26T06:40:12.394Z,58.10
2019-03-26T06:42:41.961Z,49.49
2019-03-26T06:45:11.920Z,48.25
2019-03-26T06:47:41.392Z,52.61
2019-03-26T06:50:11.260Z,56.13
2019-03-26T06:52:40.808Z,56.81
2019-03-26T06:55:11.429Z,55.08
2019-03-26T06:57:40.949Z,51.88
2019-03-26T07:00:11.710Z,50.19
2019-03-26T07:02:41.429Z,51.23
2019-03-26T07:05:10.993Z,48.09
2019-03-26T07:07:40.605Z,46.89
2019-03-26T07:10:10.004Z,47.39
2019-03-26T07:12:39.605Z,45.52
2019-03-26T07:15:10.789Z,40.77
2019-03-26T07:17:46.509Z,41.74
2019-03-26T07:20:20.272Z,46.30
2019-03-26T07:22:51.495Z,49.59
2019-03-26T07:25:21.143Z,52.53
2019-03-26T07:27:54.664Z,53.15
2019-03-26T07:30:39.404Z,53.76
2019-03-26T07:33:09.023Z,56.13
2019-03-26T07:35:43.217Z,57.71
2019-03-26T07:38:09.723Z,58.01
2019-03-26T07:40:39.474Z,56.09
2019-03-26T07:43:18.201Z,57.03
2019-03-26T07:45:48.867Z,56.58
2019-03-26T07:48:24.258Z,59.08
2019-03-26T07:50:53.851Z,59.34
2019-03-26T07:53:23.399Z,59.45
2019-03-26T07:55:53.024Z,58.69
2019-03-26T07:58:22.621Z,59.27
2019-03-26T08:00:52.346Z,60.77
2019-03-26T08:03:21.971Z,62.21
2019-03-26T08:05:51.505Z,62.17
2019-03-26T08:08:20.948Z,61.69
2019-03-26T08:10:50.591Z,61.02
2019-03-26T08:13:20.127Z,60.18
2019-03-26T08:15:49.502Z,59.13
2019-03-26T08:18:19.097Z,59.17
2019-03-26T08:20:48.535Z,58.81
2019-03-26T08:23:18.057Z,58.84
2019-03-26T08:25:47.541Z,59.64
2019-03-26T08:28:17.082Z,60.20
2019-03-26T08:30:49.885Z,60.64
2019-03-26T08:33:17.830Z,60.73
2019-03-26T08:35:47.586Z,60.74
2019-03-26T08:38:17.047Z,60.28
2019-03-26T08:40:46.618Z,60.54
2019-03-26T08:43:17.715Z,60.48
2019-03-26T08:45:47.361Z,61.39
2019-03-26T08:48:16.924Z,61.92
2019-03-26T08:50:46.537Z,62.10
2019-03-26T08:53:16.074Z,60.83
2019-03-26T08:55:45.583Z,59.42
2019-03-26T08:58:18.055Z,57.91
2019-03-26T09:00:48.037Z,56.02
2019-03-26T09:03:20.679Z,54.57
2019-03-26T09:05:50.159Z,53.07
2019-03-26T09:08:25.248Z,53.16
2019-03-26T09:10:52.265Z,53.67
2019-03-26T09:13:23.449Z,54.76
2019-03-26T09:15:52.923Z,55.51
2019-03-26T09:18:22.395Z,56.92
2019-03-26T09:20:51.788Z,57.82
2019-03-26T09:23:21.374Z,57.61
2019-03-26T09:25:50.894Z,57.26
2019-03-26T09:28:20.308Z,56.44
2019-03-26T09:30:49.892Z,55.57
2019-03-26T09:33:19.474Z,54.44
2019-03-26T09:35:49.019Z,53.70
2019-03-26T09:38:18.515Z,52.67
2019-03-26T09:40:47.997Z,50.74
2019-03-26T09:43:17.409Z,49.49
2019-03-26T09:45:51.929Z,47.69
2019-03-26T09:48:24.116Z,47.11
2019-03-26T09:50:56.283Z,47.45
2019-03-26T09:53:31.681Z,47.55
2019-03-26T09:56:04.365Z,47.36
2019-03-26T09:58:36.684Z,45.30
2019-03-26T10:01:06.230Z,43.00
2019-03-26T10:03:36.727Z,42.39
2019-03-26T10:06:06.167Z,40.42
2019-03-26T10:08:37.623Z,38.47
2019-03-26T10:11:07.319Z,39.07
2019-03-26T10:13:36.931Z,41.03
2019-03-26T10:16:08.259Z,42.35
2019-03-26T10:18:37.960Z,40.99
2019-03-26T10:21:07.740Z,41.14
2019-03-26T10:23:37.367Z,41.05
2019-03-26T10:26:06.917Z,41.64
2019-03-26T10:28:36.392Z,43.61
2019-03-26T10:31:05.950Z,44.74
2019-03-26T10:33:35.546Z,46.16
2019-03-26T10:36:05.107Z,46.28
2019-03-26T10:38:34.717Z,45.49
2019-03-26T10:41:04.233Z,44.72
2019-03-26T10:43:33.762Z,45.10
2019-03-26T10:46:03.261Z,43.28
2019-03-26T10:48:32.950Z,40.86
2019-03-26T10:51:02.528Z,41.61
2019-03-26T10:53:32.131Z,42.90
2019-03-26T10:56:01.625Z,43.18
2019-03-26T10:58:31.183Z,44.03
2019-03-26T11:01:00.745Z,43.83
2019-03-26T11:03:37.169Z,43.69
2019-03-26T11:06:06.634Z,42.64
2019-03-26T11:08:36.258Z,43.70
2019-03-26T11:11:05.680Z,44.30
2019-03-26T11:13:35.226Z,44.03
2019-03-26T11:16:04.761Z,44.83
2019-03-26T11:18:34.301Z,44.87
2019-03-26T11:21:04.852Z,44.98
2019-03-26T11:23:34.359Z,45.94
2019-03-26T11:26:03.982Z,46.67
2019-03-26T11:28:33.681Z,47.81
2019-03-26T11:31:03.150Z,48.09
2019-03-26T11:33:32.702Z,48.55
2019-03-26T11:36:02.211Z,47.61
2019-03-26T11:38:31.885Z,41.30
2019-03-26T11:41:01.332Z,37.03
2019-03-26T11:43:30.969Z,38.28
2019-03-26T11:46:00.523Z,39.87
2019-03-26T11:48:30.105Z,41.27
2019-03-26T11:50:59.630Z,42.57
2019-03-26T11:53:29.202Z,43.81
2019-03-26T11:55:58.732Z,44.32
2019-03-26T11:58:31.173Z,43.80
2019-03-26T12:01:01.215Z,44.57
2019-03-26T12:03:30.675Z,44.76
2019-03-26T12:06:01.813Z,45.12
2019-03-26T12:08:31.347Z,45.57
2019-03-26T12:11:00.899Z,46.00
2019-03-26T12:13:30.969Z,45.71
2019-03-26T12:16:00.385Z,45.90
2019-03-26T12:18:29.785Z,45.99
2019-03-26T12:20:59.305Z,44.05
2019-03-26T12:23:30.746Z,43.18
2019-03-26T12:26:01.580Z,43.12
2019-03-26T12:28:33.470Z,43.35
2019-03-26T12:31:07.056Z,43.71
2019-03-26T12:33:41.211Z,43.05
2019-03-26T12:36:10.877Z,41.89
2019-03-26T12:38:40.356Z,40.52
2019-03-26T12:41:09.922Z,38.80
2019-03-26T12:43:45.287Z,37.75
2019-03-26T12:46:17.526Z,38.23
2019-03-26T12:48:48.660Z,37.61
2019-03-26T12:51:18.294Z,36.40
2019-03-26T12:53:54.017Z,34.24
2019-03-26T12:56:23.660Z,31.70
2019-03-26T12:58:54.877Z,28.12
2019-03-26T13:01:24.528Z,28.02
2019-03-26T13:03:54.071Z,24.29
2019-03-26T13:06:23.545Z,23.03
2019-03-26T13:08:53.234Z,25.17
2019-03-26T13:11:22.827Z,27.04
2019-03-26T13:13:52.313Z,28.96
2019-03-26T13:16:22.068Z,28.96
2019-03-26T13:18:51.689Z,27.92
2019-03-26T13:21:21.356Z,26.43
2019-03-26T13:23:50.920Z,27.09
2019-03-26T13:26:20.615Z,29.65
2019-03-26T13:28:50.021Z,31.76
2019-03-26T13:31:19.615Z,32.17
2019-03-26T13:33:49.260Z,32.24
2019-03-26T13:36:18.829Z,33.25
2019-03-26T13:38:48.374Z,33.41
2019-03-26T13:41:18.169Z,34.06
2019-03-26T13:43:47.485Z,35.01
2019-03-26T13:46:17.039Z,36.35
2019-03-26T13:48:46.471Z,36.70
2019-03-26T13:51:16.100Z,37.75
2019-03-26T13:53:45.719Z,36.72
2019-03-26T13:56:15.350Z,35.85
2019-03-26T13:58:45.005Z,35.61
2019-03-26T14:01:14.565Z,37.22
2019-03-26T14:03:44.095Z,37.87
2019-03-26T14:06:13.732Z,38.37
2019-03-26T14:08:43.289Z,37.21
2019-03-26T14:11:12.909Z,37.63
2019-03-26T14:13:42.467Z,37.34
2019-03-26T14:16:12.060Z,37.83
2019-03-26T14:18:41.513Z,37.19
2019-03-26T14:21:11.287Z,37.75
2019-03-26T14:23:40.856Z,38.25
2019-03-26T14:26:10.599Z,37.79
2019-03-26T14:28:40.185Z,38.72
2019-03-26T14:31:09.768Z,39.17
2019-03-26T14:33:39.241Z,39.35
2019-03-26T14:36:08.901Z,39.37
2019-03-26T14:38:38.450Z,39.23
2019-03-26T14:41:07.954Z,39.02
2019-03-26T14:43:37.548Z,39.92
2019-03-26T14:46:07.027Z,39.74
2019-03-26T14:48:36.515Z,39.97
2019-03-26T14:51:06.059Z,40.38
2019-03-26T14:53:35.622Z,40.90
2019-03-26T14:56:11.568Z,40.98
2019-03-26T14:58:41.098Z,40.94
2019-03-26T15:01:10.775Z,41.05
2019-03-26T15:03:40.390Z,41.35
2019-03-26T15:06:09.950Z,41.80
2019-03-26T15:08:39.597Z,41.69
2019-03-26T15:11:09.093Z,41.94
2019-03-26T15:13:38.571Z,42.07
2019-03-26T15:16:08.245Z,41.78
2019-03-26T15:18:37.781Z,41.40
2019-03-26T15:21:07.329Z,41.75
2019-03-26T15:23:36.859Z,42.26
2019-03-26T15:26:06.344Z,42.26
2019-03-26T15:28:35.976Z,42.13
2019-03-26T15:31:05.595Z,41.80
2019-03-26T15:33:35.239Z,42.13
2019-03-26T15:36:04.709Z,41.99
2019-03-26T15:38:34.324Z,42.21
2019-03-26T15:41:03.877Z,41.96
2019-03-26T15:43:33.372Z,42.58
2019-03-26T15:46:02.904Z,42.26
2019-03-26T15:48:32.359Z,42.29
2019-03-26T15:51:01.842Z,42.15
2019-03-26T15:53:31.467Z,42.25
2019-03-26T15:56:00.953Z,42.69
2019-03-26T15:58:30.561Z,42.21
2019-03-26T16:01:00.154Z,42.22
2019-03-26T16:03:29.728Z,42.15
2019-03-26T16:05:59.383Z,42.17
2019-03-26T16:08:28.969Z,43.37
2019-03-26T16:10:58.398Z,44.68
2019-03-26T16:13:27.860Z,46.82
2019-03-26T16:15:57.466Z,48.00
2019-03-26T16:18:27.124Z,49.18
2019-03-26T16:20:56.621Z,50.41
2019-03-26T16:23:26.236Z,50.88
2019-03-26T16:25:55.710Z,51.44
2019-03-26T16:28:25.188Z,52.17
2019-03-26T16:30:56.426Z,52.36
2019-03-26T16:33:28.703Z,52.97
2019-03-26T16:35:58.234Z,53.63
2019-03-26T16:38:27.864Z,54.39
2019-03-26T16:41:00.379Z,54.42
2019-03-26T16:43:29.430Z,55.66
2019-03-26T16:46:09.601Z,55.94
2019-03-26T16:48:42.804Z,55.90
2019-03-26T16:51:12.288Z,56.17
2019-03-26T16:53:41.763Z,57.06
2019-03-26T16:56:11.360Z,57.56
2019-03-26T16:58:44.675Z,57.84
2019-03-26T17:01:14.315Z,57.95
2019-03-26T17:03:57.373Z,57.96
2019-03-26T17:06:27.097Z,58.28
2019-03-26T17:08:56.728Z,59.22
2019-03-26T17:11:27.072Z,59.42
2019-03-26T17:13:58.210Z,59.77
2019-03-26T17:16:27.756Z,60.70
2019-03-26T17:18:57.238Z,61.01
2019-03-26T17:21:26.752Z,61.72
2019-03-26T17:23:57.955Z,62.78
2019-03-26T17:26:27.743Z,62.78
2019-03-26T17:29:00.172Z,62.83
2019-03-26T17:31:29.767Z,63.38
2019-03-26T17:34:05.099Z,63.24
2019-03-26T17:36:37.746Z,63.52
2019-03-26T18:22:08.285Z,60.61
2019-03-26T18:24:39.156Z,60.99
2019-03-26T18:27:08.861Z,61.26
2019-03-26T18:29:38.481Z,60.61
2019-03-26T18:32:08.010Z,60.18
2019-03-26T18:34:37.661Z,60.10
2019-03-26T18:37:07.471Z,60.51
2019-03-26T18:39:37.216Z,60.54
2019-03-26T18:42:06.938Z,60.52
2019-03-26T18:44:36.730Z,60.42
2019-03-26T18:47:06.288Z,60.60
2019-03-26T18:49:36.840Z,60.76
2019-03-26T18:52:06.469Z,60.69
2019-03-26T18:54:36.019Z,59.27
2019-03-26T18:57:05.582Z,58.52
2019-03-26T18:59:35.190Z,57.85
2019-03-26T19:02:04.875Z,58.48
2019-03-26T19:04:34.677Z,58.63
2019-03-26T19:07:04.514Z,58.74
2019-03-26T19:09:34.452Z,58.76
2019-03-26T19:12:04.109Z,58.80
2019-03-26T19:14:34.172Z,58.86
2019-03-26T19:17:03.622Z,58.76
2019-03-26T19:19:33.294Z,58.62
2019-03-26T19:22:02.935Z,58.33
2019-03-26T19:24:32.741Z,58.35
2019-03-26T19:27:04.346Z,58.49
2019-03-26T19:29:33.972Z,59.11
2019-03-26T19:32:03.618Z,58.80
2019-03-26T19:34:33.316Z,59.67
2019-03-26T19:37:02.949Z,59.35
2019-03-26T19:39:32.521Z,59.73
2019-03-26T19:42:02.132Z,59.56
2019-03-26T19:44:31.740Z,59.60
2019-03-26T19:47:01.517Z,59.64
2019-03-26T19:49:31.184Z,60.45
2019-03-26T19:52:00.851Z,60.29
2019-03-26T19:54:30.548Z,60.55
2019-03-26T19:57:00.267Z,60.65
2019-03-26T19:59:29.906Z,60.35
2019-03-26T20:01:59.426Z,60.66
2019-03-26T20:04:29.263Z,60.97
2019-03-26T20:06:58.888Z,60.94
2019-03-26T20:09:29.454Z,61.27
2019-03-26T20:11:59.171Z,60.65
2019-03-26T20:14:28.701Z,61.07
2019-03-26T20:16:58.422Z,61.16
2019-03-26T20:19:28.056Z,61.56
2019-03-26T20:21:57.686Z,61.13
2019-03-26T20:24:27.310Z,60.45
2019-03-26T20:26:56.931Z,60.20
2019-03-26T20:29:26.567Z,60.71
2019-03-26T20:31:56.184Z,61.27
2019-03-26T20:34:25.929Z,60.85
2019-03-26T20:36:55.557Z,61.13
2019-03-26T20:39:25.200Z,61.86
2019-03-26T20:41:54.906Z,61.73
2019-03-26T20:44:24.539Z,61.72
2019-03-26T20:46:54.166Z,61.36
2019-03-26T20:49:23.894Z,61.79
2019-03-26T20:51:53.437Z,61.59
2019-03-26T20:54:23.043Z,61.38
2019-03-26T20:56:52.780Z,61.91
2019-03-26T20:59:22.522Z,61.74
2019-03-26T21:01:52.153Z,61.66
2019-03-26T21:04:21.867Z,62.23
2019-03-26T21:06:51.486Z,62.71
2019-03-26T21:09:21.226Z,62.50
2019-03-26T21:11:50.746Z,61.89
2019-03-26T21:14:20.222Z,62.38
2019-03-26T21:16:49.894Z,62.10
2019-03-26T21:19:19.634Z,62.54
2019-03-26T21:21:49.366Z,62.72
2019-03-26T21:24:19.072Z,62.49
2019-03-26T21:26:48.629Z,62.42
2019-03-26T21:29:18.204Z,62.62
2019-03-26T21:31:47.773Z,62.28
2019-03-26T21:34:29.976Z,61.48
2019-03-26T21:36:48.751Z,61.71
2019-03-26T21:39:18.450Z,61.37
2019-03-26T21:41:48.123Z,61.94
2019-03-26T21:44:17.755Z,62.41
2019-03-26T21:46:47.382Z,62.51
2019-03-26T21:49:17.006Z,62.49
2019-03-26T21:51:46.530Z,63.03
2019-03-26T21:54:16.166Z,62.51
2019-03-26T21:56:45.789Z,62.37
2019-03-26T21:59:15.415Z,62.55
2019-03-26T22:01:44.950Z,62.72
2019-03-26T22:04:14.667Z,62.96
2019-03-26T22:06:44.237Z,63.01
2019-03-26T22:09:13.925Z,63.16
2019-03-26T22:11:49.805Z,63.38
2019-03-26T22:14:18.300Z,63.25
2019-03-26T22:16:46.089Z,63.19
2019-03-26T22:19:28.050Z,63.70
2019-03-26T22:21:46.878Z,64.17
2019-03-26T22:24:17.286Z,64.18
2019-03-26T22:26:46.951Z,64.90
2019-03-26T22:29:16.684Z,64.91
2019-03-26T22:31:46.218Z,65.56
2019-03-26T22:34:15.735Z,66.01
2019-03-26T22:36:45.437Z,66.59
2019-03-26T22:39:15.098Z,65.89
2019-03-26T22:41:44.716Z,66.73
2019-03-26T22:44:14.390Z,66.62
2019-03-26T22:46:43.971Z,66.00
2019-03-26T22:49:13.391Z,66.72
2019-03-26T22:51:43.024Z,67.59
2019-03-26T22:54:12.755Z,68.07
2019-03-26T22:56:42.380Z,68.86
2019-03-26T22:59:12.006Z,68.62
2019-03-26T23:01:41.847Z,68.57
2019-03-26T23:04:12.490Z,68.90
2019-03-26T23:06:42.253Z,69.05
2019-03-26T23:09:12.070Z,68.90
2019-03-26T23:11:41.680Z,69.33
2019-03-26T23:14:11.283Z,68.58
2019-03-26T23:16:40.938Z,69.23
2019-03-26T23:19:10.466Z,69.70
2019-03-26T23:21:40.105Z,70.03
2019-03-26T23:24:09.718Z,70.50
2019-03-26T23:26:41.108Z,70.60
2019-03-26T23:29:10.816Z,71.53
2019-03-26T23:31:40.445Z,72.34
2019-03-26T23:34:10.176Z,72.65
2019-03-26T23:36:39.810Z,72.54
2019-03-26T23:39:09.324Z,73.36
2019-03-26T23:41:39.845Z,74.00
2019-03-26T23:44:09.820Z,74.42
2019-03-26T23:46:39.542Z,74.35
2019-03-26T23:49:09.277Z,74.63
2019-03-26T23:51:38.793Z,75.30
2019-03-26T23:54:08.430Z,76.08
2019-03-26T23:56:38.165Z,75.35
2019-03-26T23:59:07.779Z,76.03
